sensor_id;sensor_type;location;lat;lon;timestamp;pressure;altitude;pressure_sealevel;temperature;humidity
21100;BME280;10708;50.824;4.408;2023-05-07T00:02:03;100566.72;;;16.07;100.00
21100;BME280;10708;50.824;4.408;2023-05-07T00:07:05;100557.88;;;16.06;100.00
21100;BME280;10708;50.824;4.408;2023-05-07T00:12:09;100562.22;;;16.07;100.00
21100;BME280;10708;50.824;4.408;2023-05-07T00:17:11;100551.72;;;16.06;100.00
21100;BME280;10708;50.824;4.408;2023-05-07T00:22:13;100541.09;;;16.06;100.00
21100;BME280;10708;50.824;4.408;2023-05-07T00:27:16;100537.81;;;16.01;100.00
21100;BME280;10708;50.824;4.408;2023-05-07T00:32:18;100534.47;;;15.97;100.00
21100;BME280;10708;50.824;4.408;2023-05-07T00:37:20;100528.50;;;15.94;100.00
21100;BME280;10708;50.824;4.408;2023-05-07T00:42:24;100529.44;;;15.93;100.00
21100;BME280;10708;50.824;4.408;2023-05-07T00:47:26;100528.59;;;15.92;100.00
21100;BME280;10708;50.824;4.408;2023-05-07T00:52:28;100524.22;;;15.91;100.00
21100;BME280;10708;50.824;4.408;2023-05-07T00:57:36;100519.84;;;15.90;100.00
21100;BME280;10708;50.824;4.408;2023-05-07T01:02:38;100517.19;;;15.90;100.00
21100;BME280;10708;50.824;4.408;2023-05-07T01:07:41;100508.38;;;15.90;100.00
21100;BME280;10708;50.824;4.408;2023-05-07T01:12:45;100507.53;;;15.89;100.00
21100;BME280;10708;50.824;4.408;2023-05-07T01:17:48;100497.94;;;15.86;100.00
21100;BME280;10708;50.824;4.408;2023-05-07T01:22:52;100501.72;;;15.82;100.00
21100;BME280;10708;50.824;4.408;2023-05-07T01:27:55;100497.34;;;15.81;100.00
21100;BME280;10708;50.824;4.408;2023-05-07T01:33:00;100485.09;;;15.79;100.00
21100;BME280;10708;50.824;4.408;2023-05-07T01:38:06;100497.63;;;15.77;100.00
21100;BME280;10708;50.824;4.408;2023-05-07T01:43:09;100491.47;;;15.76;100.00
21100;BME280;10708;50.824;4.408;2023-05-07T01:48:12;100496.00;;;15.74;100.00
21100;BME280;10708;50.824;4.408;2023-05-07T01:53:17;100496.25;;;15.70;100.00
21100;BME280;10708;50.824;4.408;2023-05-07T01:58:19;100501.66;;;15.68;100.00
21100;BME280;10708;50.824;4.408;2023-05-07T02:03:21;100506.09;;;15.68;100.00
21100;BME280;10708;50.824;4.408;2023-05-07T02:08:25;100510.66;;;15.66;100.00
21100;BME280;10708;50.824;4.408;2023-05-07T02:13:29;100510.66;;;15.66;100.00
21100;BME280;10708;50.824;4.408;2023-05-07T02:18:31;100507.31;;;15.62;100.00
21100;BME280;10708;50.824;4.408;2023-05-07T02:23:35;100508.44;;;15.58;100.00
21100;BME280;10708;50.824;4.408;2023-05-07T02:28:37;100505.25;;;15.51;100.00
21100;BME280;10708;50.824;4.408;2023-05-07T02:33:39;100518.03;;;15.45;100.00
21100;BME280;10708;50.824;4.408;2023-05-07T02:38:42;100515.91;;;15.36;100.00
21100;BME280;10708;50.824;4.408;2023-05-07T02:43:44;100510.25;;;15.26;100.00
21100;BME280;10708;50.824;4.408;2023-05-07T02:48:46;100512.44;;;15.18;100.00
21100;BME280;10708;50.824;4.408;2023-05-07T02:53:49;100511.84;;;15.13;100.00
21100;BME280;10708;50.824;4.408;2023-05-07T02:58:51;100520.75;;;15.12;100.00
21100;BME280;10708;50.824;4.408;2023-05-07T03:03:53;100521.59;;;15.12;100.00
21100;BME280;10708;50.824;4.408;2023-05-07T03:08:57;100513.50;;;15.16;100.00
21100;BME280;10708;50.824;4.408;2023-05-07T03:13:59;100518.59;;;15.19;100.00
21100;BME280;10708;50.824;4.408;2023-05-07T03:19:01;100514.78;;;15.24;100.00
21100;BME280;10708;50.824;4.408;2023-05-07T03:24:05;100513.84;;;15.25;100.00
21100;BME280;10708;50.824;4.408;2023-05-07T03:29:08;100511.94;;;15.27;100.00
21100;BME280;10708;50.824;4.408;2023-05-07T03:34:10;100519.81;;;15.29;100.00
21100;BME280;10708;50.824;4.408;2023-05-07T03:39:13;100523.16;;;15.32;100.00
21100;BME280;10708;50.824;4.408;2023-05-07T03:44:15;100517.78;;;15.34;100.00
21100;BME280;10708;50.824;4.408;2023-05-07T03:49:17;100515.78;;;15.37;100.00
21100;BME280;10708;50.824;4.408;2023-05-07T03:54:20;100517.59;;;15.37;100.00
21100;BME280;10708;50.824;4.408;2023-05-07T03:59:22;100517.50;;;15.38;100.00
21100;BME280;10708;50.824;4.408;2023-05-07T04:04:24;100519.22;;;15.39;100.00
21100;BME280;10708;50.824;4.408;2023-05-07T04:09:28;100513.91;;;15.39;100.00
21100;BME280;10708;50.824;4.408;2023-05-07T04:14:30;100515.63;;;15.40;100.00
21100;BME280;10708;50.824;4.408;2023-05-07T04:19:33;100516.47;;;15.41;100.00
21100;BME280;10708;50.824;4.408;2023-05-07T04:24:36;100509.38;;;15.41;100.00
21100;BME280;10708;50.824;4.408;2023-05-07T04:29:39;100507.56;;;15.42;100.00
21100;BME280;10708;50.824;4.408;2023-05-07T04:34:42;100502.19;;;15.43;100.00
21100;BME280;10708;50.824;4.408;2023-05-07T04:39:46;100511.78;;;15.46;100.00
21100;BME280;10708;50.824;4.408;2023-05-07T04:44:52;100510.72;;;15.48;100.00
21100;BME280;10708;50.824;4.408;2023-05-07T04:49:54;100514.06;;;15.52;100.00
21100;BME280;10708;50.824;4.408;2023-05-07T04:54:59;100517.25;;;15.59;100.00
21100;BME280;10708;50.824;4.408;2023-05-07T05:00:01;100527.53;;;15.65;100.00
21100;BME280;10708;50.824;4.408;2023-05-07T05:05:05;100522.81;;;15.70;100.00
21100;BME280;10708;50.824;4.408;2023-05-07T05:10:09;100524.94;;;15.79;100.00
21100;BME280;10708;50.824;4.408;2023-05-07T05:15:11;100526.78;;;15.93;100.00
21100;BME280;10708;50.824;4.408;2023-05-07T05:20:13;100533.19;;;16.04;100.00
21100;BME280;10708;50.824;4.408;2023-05-07T05:25:17;100534.84;;;16.21;100.00
21100;BME280;10708;50.824;4.408;2023-05-07T05:30:19;100544.66;;;16.35;100.00
21100;BME280;10708;50.824;4.408;2023-05-07T05:35:21;100553.88;;;16.43;100.00
21100;BME280;10708;50.824;4.408;2023-05-07T05:40:25;100551.78;;;16.48;100.00
21100;BME280;10708;50.824;4.408;2023-05-07T05:45:26;100562.06;;;16.54;100.00
21100;BME280;10708;50.824;4.408;2023-05-07T05:50:28;100559.97;;;16.59;100.00
21100;BME280;10708;50.824;4.408;2023-05-07T05:55:32;100570.09;;;16.69;100.00
21100;BME280;10708;50.824;4.408;2023-05-07T06:00:37;100594.09;;;16.67;100.00
21100;BME280;10708;50.824;4.408;2023-05-07T06:05:42;100605.16;;;16.59;100.00
21100;BME280;10708;50.824;4.408;2023-05-07T06:10:46;100604.78;;;16.51;100.00
21100;BME280;10708;50.824;4.408;2023-05-07T06:15:49;100612.00;;;16.49;100.00
21100;BME280;10708;50.824;4.408;2023-05-07T06:20:51;100607.31;;;16.39;100.00
21100;BME280;10708;50.824;4.408;2023-05-07T06:25:55;100612.06;;;16.34;100.00
21100;BME280;10708;50.824;4.408;2023-05-07T06:31:11;100617.66;;;16.13;100.00
21100;BME280;10708;50.824;4.408;2023-05-07T06:36:13;100621.09;;;16.15;100.00
21100;BME280;10708;50.824;4.408;2023-05-07T06:41:19;100626.91;;;16.22;100.00
21100;BME280;10708;50.824;4.408;2023-05-07T06:51:40;100634.47;;;16.14;100.00
21100;BME280;10708;50.824;4.408;2023-05-07T06:56:44;100638.25;;;15.94;100.00
21100;BME280;10708;50.824;4.408;2023-05-07T07:01:47;100643.47;;;15.80;100.00
21100;BME280;10708;50.824;4.408;2023-05-07T07:06:49;100633.78;;;15.79;100.00
21100;BME280;10708;50.824;4.408;2023-05-07T07:11:53;100647.88;;;15.65;100.00
21100;BME280;10708;50.824;4.408;2023-05-07T07:16:57;100647.28;;;15.43;100.00
21100;BME280;10708;50.824;4.408;2023-05-07T07:21:59;100635.97;;;15.39;100.00
21100;BME280;10708;50.824;4.408;2023-05-07T07:27:03;100645.72;;;15.39;100.00
21100;BME280;10708;50.824;4.408;2023-05-07T07:32:05;100659.69;;;15.42;100.00
21100;BME280;10708;50.824;4.408;2023-05-07T07:37:07;100659.84;;;15.39;100.00
21100;BME280;10708;50.824;4.408;2023-05-07T07:42:11;100663.81;;;15.48;100.00
21100;BME280;10708;50.824;4.408;2023-05-07T07:47:13;100664.31;;;15.39;100.00
21100;BME280;10708;50.824;4.408;2023-05-07T07:52:15;100668.50;;;15.43;100.00
21100;BME280;10708;50.824;4.408;2023-05-07T07:57:18;100678.03;;;15.47;100.00
21100;BME280;10708;50.824;4.408;2023-05-07T08:02:20;100690.19;;;15.51;100.00
21100;BME280;10708;50.824;4.408;2023-05-07T08:07:22;100687.50;;;15.35;100.00
21100;BME280;10708;50.824;4.408;2023-05-07T08:12:26;100690.66;;;15.26;100.00
21100;BME280;10708;50.824;4.408;2023-05-07T08:17:28;100700.16;;;15.30;100.00
21100;BME280;10708;50.824;4.408;2023-05-07T08:22:30;100712.31;;;15.34;100.00
21100;BME280;10708;50.824;4.408;2023-05-07T08:27:34;100718.78;;;15.46;100.00
21100;BME280;10708;50.824;4.408;2023-05-07T08:32:36;100722.19;;;15.48;100.00
21100;BME280;10708;50.824;4.408;2023-05-07T08:37:38;100729.72;;;15.40;100.00
21100;BME280;10708;50.824;4.408;2023-05-07T08:42:42;100740.66;;;15.34;100.00
21100;BME280;10708;50.824;4.408;2023-05-07T08:47:58;100743.28;;;15.51;100.00
21100;BME280;10708;50.824;4.408;2023-05-07T08:53:05;100743.72;;;15.76;100.00
21100;BME280;10708;50.824;4.408;2023-05-07T08:58:12;100742.28;;;16.02;100.00
21100;BME280;10708;50.824;4.408;2023-05-07T09:03:14;100730.63;;;16.05;100.00
21100;BME280;10708;50.824;4.408;2023-05-07T09:08:17;100738.88;;;16.16;100.00
21100;BME280;10708;50.824;4.408;2023-05-07T09:13:20;100742.97;;;16.21;100.00
21100;BME280;10708;50.824;4.408;2023-05-07T09:18:26;100745.69;;;16.20;100.00
21100;BME280;10708;50.824;4.408;2023-05-07T09:23:28;100751.09;;;16.18;100.00
21100;BME280;10708;50.824;4.408;2023-05-07T09:28:32;100760.63;;;16.22;100.00
21100;BME280;10708;50.824;4.408;2023-05-07T09:33:34;100775.03;;;16.34;100.00
21100;BME280;10708;50.824;4.408;2023-05-07T09:38:38;100774.75;;;16.54;100.00
21100;BME280;10708;50.824;4.408;2023-05-07T09:43:42;100771.31;;;16.68;100.00
21100;BME280;10708;50.824;4.408;2023-05-07T09:48:44;100774.31;;;16.78;100.00
21100;BME280;10708;50.824;4.408;2023-05-07T09:53:47;100778.06;;;16.89;100.00
21100;BME280;10708;50.824;4.408;2023-05-07T09:58:52;100788.44;;;16.94;100.00
21100;BME280;10708;50.824;4.408;2023-05-07T10:03:56;100783.63;;;17.01;100.00
21100;BME280;10708;50.824;4.408;2023-05-07T10:08:59;100787.22;;;17.00;100.00
21100;BME280;10708;50.824;4.408;2023-05-07T10:14:03;100784.56;;;17.00;100.00
21100;BME280;10708;50.824;4.408;2023-05-07T10:19:08;100784.56;;;17.00;100.00
21100;BME280;10708;50.824;4.408;2023-05-07T10:24:12;100789.88;;;17.00;100.00
21100;BME280;10708;50.824;4.408;2023-05-07T10:29:28;100788.00;;;17.02;100.00
21100;BME280;10708;50.824;4.408;2023-05-07T10:34:36;100787.03;;;17.03;100.00
21100;BME280;10708;50.824;4.408;2023-05-07T10:39:42;100785.50;;;16.98;100.00
21100;BME280;10708;50.824;4.408;2023-05-07T10:44:46;100792.53;;;17.00;100.00
21100;BME280;10708;50.824;4.408;2023-05-07T10:50:25;100800.91;;;17.08;100.00
21100;BME280;10708;50.824;4.408;2023-05-07T10:55:27;100803.31;;;17.12;100.00
21100;BME280;10708;50.824;4.408;2023-05-07T11:00:45;100800.84;;;17.09;100.00
21100;BME280;10708;50.824;4.408;2023-05-07T11:05:47;100801.44;;;17.14;100.00
21100;BME280;10708;50.824;4.408;2023-05-07T11:10:53;100801.47;;;17.28;100.00
21100;BME280;10708;50.824;4.408;2023-05-07T11:15:57;100798.91;;;17.41;100.00
21100;BME280;10708;50.824;4.408;2023-05-07T11:20:59;100800.75;;;17.55;100.00
21100;BME280;10708;50.824;4.408;2023-05-07T11:26:03;100798.81;;;17.73;100.00
21100;BME280;10708;50.824;4.408;2023-05-07T11:31:07;100798.78;;;17.87;100.00
21100;BME280;10708;50.824;4.408;2023-05-07T11:36:10;100804.63;;;17.93;100.00
21100;BME280;10708;50.824;4.408;2023-05-07T11:41:12;100796.44;;;17.82;100.00
21100;BME280;10708;50.824;4.408;2023-05-07T11:46:17;100798.03;;;17.70;100.00
21100;BME280;10708;50.824;4.408;2023-05-07T11:51:20;100802.31;;;17.73;100.00
21100;BME280;10708;50.824;4.408;2023-05-07T11:56:23;100801.19;;;17.91;100.00
21100;BME280;10708;50.824;4.408;2023-05-07T12:01:26;100802.91;;;18.06;100.00
21100;BME280;10708;50.824;4.408;2023-05-07T12:06:28;100807.59;;;18.44;100.00
21100;BME280;10708;50.824;4.408;2023-05-07T12:11:31;100808.41;;;18.73;100.00
21100;BME280;10708;50.824;4.408;2023-05-07T12:16:35;100809.97;;;19.02;100.00
21100;BME280;10708;50.824;4.408;2023-05-07T12:21:37;100804.78;;;18.87;100.00
21100;BME280;10708;50.824;4.408;2023-05-07T12:26:39;100803.66;;;18.91;100.00
21100;BME280;10708;50.824;4.408;2023-05-07T12:31:43;100811.34;;;18.95;100.00
21100;BME280;10708;50.824;4.408;2023-05-07T12:36:48;100795.31;;;18.83;100.00
21100;BME280;10708;50.824;4.408;2023-05-07T12:41:53;100793.69;;;18.80;100.00
21100;BME280;10708;50.824;4.408;2023-05-07T12:46:57;100804.50;;;18.91;100.00
21100;BME280;10708;50.824;4.408;2023-05-07T12:52:01;100813.41;;;18.77;100.00
21100;BME280;10708;50.824;4.408;2023-05-07T12:57:04;100812.50;;;18.91;100.00
21100;BME280;10708;50.824;4.408;2023-05-07T13:02:08;100816.13;;;18.90;100.00
21100;BME280;10708;50.824;4.408;2023-05-07T13:07:10;100818.00;;;19.02;100.00
21100;BME280;10708;50.824;4.408;2023-05-07T13:12:13;100821.47;;;18.90;100.00
21100;BME280;10708;50.824;4.408;2023-05-07T13:17:16;100816.84;;;18.79;100.00
21100;BME280;10708;50.824;4.408;2023-05-07T13:22:21;100823.28;;;18.90;100.00
21100;BME280;10708;50.824;4.408;2023-05-07T13:27:23;100824.81;;;18.94;100.00
21100;BME280;10708;50.824;4.408;2023-05-07T13:32:28;100828.53;;;18.91;100.00
21100;BME280;10708;50.824;4.408;2023-05-07T13:37:30;100823.00;;;18.94;100.00
21100;BME280;10708;50.824;4.408;2023-05-07T13:42:32;100824.91;;;18.92;100.00
21100;BME280;10708;50.824;4.408;2023-05-07T13:47:36;100821.81;;;18.98;100.00
21100;BME280;10708;50.824;4.408;2023-05-07T13:52:38;100822.75;;;18.97;100.00
21100;BME280;10708;50.824;4.408;2023-05-07T13:57:40;100821.84;;;18.71;100.00
21100;BME280;10708;50.824;4.408;2023-05-07T14:02:44;100827.00;;;18.60;100.00
21100;BME280;10708;50.824;4.408;2023-05-07T14:07:46;100830.69;;;18.72;100.00
21100;BME280;10708;50.824;4.408;2023-05-07T14:12:49;100829.19;;;18.54;100.00
21100;BME280;10708;50.824;4.408;2023-05-07T14:17:54;100831.72;;;18.69;100.00
21100;BME280;10708;50.824;4.408;2023-05-07T14:22:58;100841.91;;;18.77;100.00
21100;BME280;10708;50.824;4.408;2023-05-07T14:28:01;100848.84;;;18.79;100.00
21100;BME280;10708;50.824;4.408;2023-05-07T14:33:04;100843.44;;;18.67;100.00
21100;BME280;10708;50.824;4.408;2023-05-07T14:38:06;100829.56;;;18.62;100.00
21100;BME280;10708;50.824;4.408;2023-05-07T14:43:08;100832.81;;;18.53;100.00
21100;BME280;10708;50.824;4.408;2023-05-07T14:48:12;100834.72;;;18.65;100.00
21100;BME280;10708;50.824;4.408;2023-05-07T14:53:15;100843.16;;;18.71;100.00
21100;BME280;10708;50.824;4.408;2023-05-07T14:58:17;100840.59;;;18.70;100.00
21100;BME280;10708;50.824;4.408;2023-05-07T15:03:21;100838.25;;;18.65;100.00
21100;BME280;10708;50.824;4.408;2023-05-07T15:08:23;100841.56;;;18.55;100.00
21100;BME280;10708;50.824;4.408;2023-05-07T15:13:25;100849.38;;;18.58;100.00
21100;BME280;10708;50.824;4.408;2023-05-07T15:18:29;100852.16;;;18.56;100.00
21100;BME280;10708;50.824;4.408;2023-05-07T15:23:32;100855.84;;;18.54;100.00
21100;BME280;10708;50.824;4.408;2023-05-07T15:28:34;100855.94;;;18.52;100.00
21100;BME280;10708;50.824;4.408;2023-05-07T15:33:37;100848.91;;;18.51;100.00
21100;BME280;10708;50.824;4.408;2023-05-07T15:38:41;100844.63;;;18.49;100.00
21100;BME280;10708;50.824;4.408;2023-05-07T15:43:46;100838.31;;;18.50;100.00
21100;BME280;10708;50.824;4.408;2023-05-07T15:48:50;100851.19;;;18.57;100.00
21100;BME280;10708;50.824;4.408;2023-05-07T15:53:52;100854.63;;;18.59;100.00
21100;BME280;10708;50.824;4.408;2023-05-07T15:58:54;100851.88;;;18.61;100.00
21100;BME280;10708;50.824;4.408;2023-05-07T16:04:01;100848.53;;;18.57;100.00
21100;BME280;10708;50.824;4.408;2023-05-07T16:09:06;100860.97;;;18.57;100.00
21100;BME280;10708;50.824;4.408;2023-05-07T16:14:09;100861.28;;;18.52;100.00
21100;BME280;10708;50.824;4.408;2023-05-07T16:19:13;100863.59;;;18.44;100.00
21100;BME280;10708;50.824;4.408;2023-05-07T16:24:15;100857.78;;;18.37;100.00
21100;BME280;10708;50.824;4.408;2023-05-07T16:29:17;100864.53;;;18.29;100.00
21100;BME280;10708;50.824;4.408;2023-05-07T16:34:21;100869.09;;;18.27;100.00
21100;BME280;10708;50.824;4.408;2023-05-07T16:39:27;100859.50;;;18.10;100.00
21100;BME280;10708;50.824;4.408;2023-05-07T16:44:29;100866.75;;;18.08;100.00
21100;BME280;10708;50.824;4.408;2023-05-07T16:49:33;100868.94;;;18.01;100.00
21100;BME280;10708;50.824;4.408;2023-05-07T16:54:35;100859.63;;;17.94;100.00
21100;BME280;10708;50.824;4.408;2023-05-07T16:59:37;100865.81;;;17.95;100.00
21100;BME280;10708;50.824;4.408;2023-05-07T17:04:40;100863.22;;;17.93;100.00
21100;BME280;10708;50.824;4.408;2023-05-07T17:09:43;100869.31;;;17.95;100.00
21100;BME280;10708;50.824;4.408;2023-05-07T17:14:45;100873.81;;;17.95;100.00
21100;BME280;10708;50.824;4.408;2023-05-07T17:19:52;100872.44;;;17.88;100.00
21100;BME280;10708;50.824;4.408;2023-05-07T17:24:54;100878.84;;;17.85;100.00
21100;BME280;10708;50.824;4.408;2023-05-07T17:29:56;100874.72;;;17.80;100.00
21100;BME280;10708;50.824;4.408;2023-05-07T17:35:00;100882.72;;;17.80;100.00
21100;BME280;10708;50.824;4.408;2023-05-07T17:40:06;100885.66;;;17.75;100.00
21100;BME280;10708;50.824;4.408;2023-05-07T17:45:10;100886.88;;;17.69;100.00
21100;BME280;10708;50.824;4.408;2023-05-07T17:50:14;100889.84;;;17.65;100.00
21100;BME280;10708;50.824;4.408;2023-05-07T17:55:17;100889.97;;;17.62;100.00
21100;BME280;10708;50.824;4.408;2023-05-07T18:00:19;100896.25;;;17.61;100.00
21100;BME280;10708;50.824;4.408;2023-05-07T18:05:23;100908.31;;;17.52;100.00
21100;BME280;10708;50.824;4.408;2023-05-07T18:10:26;100915.91;;;17.44;100.00
21100;BME280;10708;50.824;4.408;2023-05-07T18:15:28;100908.78;;;17.29;100.00
21100;BME280;10708;50.824;4.408;2023-05-07T18:20:31;100920.91;;;17.19;100.00
21100;BME280;10708;50.824;4.408;2023-05-07T18:25:34;100936.63;;;17.08;100.00
21100;BME280;10708;50.824;4.408;2023-05-07T18:30:36;100939.81;;;16.98;100.00
21100;BME280;10708;50.824;4.408;2023-05-07T18:35:40;100940.25;;;16.91;100.00
21100;BME280;10708;50.824;4.408;2023-05-07T18:40:42;100944.19;;;16.84;100.00
21100;BME280;10708;50.824;4.408;2023-05-07T18:45:51;100947.63;;;16.70;100.00
21100;BME280;10708;50.824;4.408;2023-05-07T18:50:54;100954.22;;;16.63;100.00
21100;BME280;10708;50.824;4.408;2023-05-07T18:55:59;100959.94;;;16.55;100.00
21100;BME280;10708;50.824;4.408;2023-05-07T19:01:02;100959.16;;;16.53;100.00
21100;BME280;10708;50.824;4.408;2023-05-07T19:06:08;100962.75;;;16.52;100.00
21100;BME280;10708;50.824;4.408;2023-05-07T19:11:11;100960.31;;;16.48;100.00
21100;BME280;10708;50.824;4.408;2023-05-07T19:16:13;100975.53;;;16.46;100.00
21100;BME280;10708;50.824;4.408;2023-05-07T19:21:16;100974.75;;;16.44;100.00
21100;BME280;10708;50.824;4.408;2023-05-07T19:26:18;100983.66;;;16.43;100.00
21100;BME280;10708;50.824;4.408;2023-05-07T19:31:22;100984.59;;;16.42;100.00
21100;BME280;10708;50.824;4.408;2023-05-07T19:36:28;100997.94;;;16.40;100.00
21100;BME280;10708;50.824;4.408;2023-05-07T19:41:32;101001.56;;;16.39;100.00
21100;BME280;10708;50.824;4.408;2023-05-07T19:46:35;101008.75;;;16.37;100.00
21100;BME280;10708;50.824;4.408;2023-05-07T19:51:40;101021.34;;;16.34;100.00
21100;BME280;10708;50.824;4.408;2023-05-07T19:56:42;101032.22;;;16.29;100.00
21100;BME280;10708;50.824;4.408;2023-05-07T20:01:45;101035.91;;;16.27;100.00
21100;BME280;10708;50.824;4.408;2023-05-07T20:06:48;101033.31;;;16.25;100.00
21100;BME280;10708;50.824;4.408;2023-05-07T20:11:50;101031.75;;;16.21;100.00
21100;BME280;10708;50.824;4.408;2023-05-07T20:16:52;101039.78;;;16.19;100.00
21100;BME280;10708;50.824;4.408;2023-05-07T20:21:56;101045.97;;;16.20;100.00
21100;BME280;10708;50.824;4.408;2023-05-07T20:26:58;101049.41;;;16.22;100.00
21100;BME280;10708;50.824;4.408;2023-05-07T20:32:00;101058.31;;;16.21;100.00
21100;BME280;10708;50.824;4.408;2023-05-07T20:37:04;101065.38;;;16.22;100.00
21100;BME280;10708;50.824;4.408;2023-05-07T20:42:06;101069.75;;;16.23;100.00
21100;BME280;10708;50.824;4.408;2023-05-07T20:47:09;101065.22;;;16.25;100.00
21100;BME280;10708;50.824;4.408;2023-05-07T20:52:12;101059.81;;;16.27;100.00
21100;BME280;10708;50.824;4.408;2023-05-07T20:57:15;101061.69;;;16.24;100.00
21100;BME280;10708;50.824;4.408;2023-05-07T21:02:18;101059.97;;;16.23;100.00
21100;BME280;10708;50.824;4.408;2023-05-07T21:07:22;101064.44;;;16.23;100.00
21100;BME280;10708;50.824;4.408;2023-05-07T21:12:24;101077.72;;;16.23;100.00
21100;BME280;10708;50.824;4.408;2023-05-07T21:17:26;101078.56;;;16.23;100.00
21100;BME280;10708;50.824;4.408;2023-05-07T21:22:32;101082.09;;;16.24;100.00
21100;BME280;10708;50.824;4.408;2023-05-07T21:27:34;101080.53;;;16.20;100.00
21100;BME280;10708;50.824;4.408;2023-05-07T21:32:36;101078.78;;;16.19;100.00
21100;BME280;10708;50.824;4.408;2023-05-07T21:37:39;101083.25;;;16.18;100.00
21100;BME280;10708;50.824;4.408;2023-05-07T21:42:42;101073.56;;;16.17;100.00
21100;BME280;10708;50.824;4.408;2023-05-07T21:47:44;101074.66;;;16.13;100.00
21100;BME280;10708;50.824;4.408;2023-05-07T21:52:47;101073.25;;;16.06;100.00
21100;BME280;10708;50.824;4.408;2023-05-07T21:57:49;101066.22;;;16.05;100.00
21100;BME280;10708;50.824;4.408;2023-05-07T22:02:51;101078.88;;;16.00;100.00
21100;BME280;10708;50.824;4.408;2023-05-07T22:07:55;101079.19;;;15.94;100.00
21100;BME280;10708;50.824;4.408;2023-05-07T22:12:57;101080.19;;;15.92;100.00
21100;BME280;10708;50.824;4.408;2023-05-07T22:17:59;101075.94;;;15.87;100.00
21100;BME280;10708;50.824;4.408;2023-05-07T22:23:02;101078.53;;;15.89;100.00
21100;BME280;10708;50.824;4.408;2023-05-07T22:28:04;101083.22;;;15.84;100.00
21100;BME280;10708;50.824;4.408;2023-05-07T22:33:06;101088.94;;;15.76;100.00
21100;BME280;10708;50.824;4.408;2023-05-07T22:38:09;101086.41;;;15.73;100.00
21100;BME280;10708;50.824;4.408;2023-05-07T22:43:11;101087.56;;;15.68;100.00
21100;BME280;10708;50.824;4.408;2023-05-07T22:48:13;101089.66;;;15.61;100.00
21100;BME280;10708;50.824;4.408;2023-05-07T22:53:17;101083.91;;;15.51;100.00
21100;BME280;10708;50.824;4.408;2023-05-07T22:58:19;101079.03;;;15.42;100.00
21100;BME280;10708;50.824;4.408;2023-05-07T23:03:21;101076.88;;;15.32;100.00
21100;BME280;10708;50.824;4.408;2023-05-07T23:08:24;101085.28;;;15.23;100.00
21100;BME280;10708;50.824;4.408;2023-05-07T23:13:26;101080.41;;;15.13;100.00
21100;BME280;10708;50.824;4.408;2023-05-07T23:18:28;101084.41;;;15.03;100.00
21100;BME280;10708;50.824;4.408;2023-05-07T23:23:34;101088.28;;;14.96;100.00
21100;BME280;10708;50.824;4.408;2023-05-07T23:28:36;101087.69;;;14.90;100.00
21100;BME280;10708;50.824;4.408;2023-05-07T23:33:38;101086.75;;;14.91;100.00
21100;BME280;10708;50.824;4.408;2023-05-07T23:38:42;101086.06;;;14.87;100.00
21100;BME280;10708;50.824;4.408;2023-05-07T23:43:43;101084.22;;;14.88;100.00
21100;BME280;10708;50.824;4.408;2023-05-07T23:48:45;101088.59;;;14.89;100.00
21100;BME280;10708;50.824;4.408;2023-05-07T23:53:49;101088.69;;;14.87;100.00
21100;BME280;10708;50.824;4.408;2023-05-07T23:58:51;101089.47;;;14.89;100.00
